sensor_id;sensor_type;location;lat;lon;timestamp;P1;durP1;ratioP1;P2;durP2;ratioP2
3217;SDS011;1621;49.702;8.618;2022-07-24T00:00:00;6.77;;;4.67;;
3217;SDS011;1621;49.702;8.618;2022-07-24T00:02:26;6.13;;;4.50;;
3217;SDS011;1621;49.702;8.618;2022-07-24T00:04:52;7.33;;;4.93;;
3217;SDS011;1621;49.702;8.618;2022-07-24T00:07:21;5.67;;;4.30;;
3217;SDS011;1621;49.702;8.618;2022-07-24T00:09:47;7.13;;;4.90;;
3217;SDS011;1621;49.702;8.618;2022-07-24T00:12:15;4.97;;;3.97;;
3217;SDS011;1621;49.702;8.618;2022-07-24T00:14:41;4.77;;;4.10;;
3217;SDS011;1621;49.702;8.618;2022-07-24T00:17:07;7.70;;;5.17;;
3217;SDS011;1621;49.702;8.618;2022-07-24T00:19:34;6.30;;;5.20;;
3217;SDS011;1621;49.702;8.618;2022-07-24T00:22:00;6.63;;;4.47;;
3217;SDS011;1621;49.702;8.618;2022-07-24T00:24:27;7.53;;;4.73;;
3217;SDS011;1621;49.702;8.618;2022-07-24T00:26:54;5.67;;;4.53;;
3217;SDS011;1621;49.702;8.618;2022-07-24T00:29:21;5.10;;;4.30;;
3217;SDS011;1621;49.702;8.618;2022-07-24T00:31:47;4.97;;;4.47;;
3217;SDS011;1621;49.702;8.618;2022-07-24T00:34:14;5.30;;;4.47;;
3217;SDS011;1621;49.702;8.618;2022-07-24T00:36:40;10.90;;;4.83;;
3217;SDS011;1621;49.702;8.618;2022-07-24T00:39:08;7.03;;;4.97;;
3217;SDS011;1621;49.702;8.618;2022-07-24T00:41:34;10.27;;;5.27;;
3217;SDS011;1621;49.702;8.618;2022-07-24T00:44:01;5.87;;;4.73;;
3217;SDS011;1621;49.702;8.618;2022-07-24T00:46:29;5.17;;;4.67;;
3217;SDS011;1621;49.702;8.618;2022-07-24T00:48:56;6.50;;;5.07;;
3217;SDS011;1621;49.702;8.618;2022-07-24T00:51:22;6.43;;;4.67;;
3217;SDS011;1621;49.702;8.618;2022-07-24T00:53:49;5.63;;;5.03;;
3217;SDS011;1621;49.702;8.618;2022-07-24T00:56:15;9.40;;;5.10;;
3217;SDS011;1621;49.702;8.618;2022-07-24T00:58:41;5.83;;;5.07;;
3217;SDS011;1621;49.702;8.618;2022-07-24T01:01:08;7.03;;;4.83;;
3217;SDS011;1621;49.702;8.618;2022-07-24T01:03:35;5.40;;;4.40;;
3217;SDS011;1621;49.702;8.618;2022-07-24T01:06:02;6.87;;;5.27;;
3217;SDS011;1621;49.702;8.618;2022-07-24T01:08:28;6.00;;;4.60;;
3217;SDS011;1621;49.702;8.618;2022-07-24T01:10:54;5.83;;;5.10;;
3217;SDS011;1621;49.702;8.618;2022-07-24T01:13:21;6.43;;;5.07;;
3217;SDS011;1621;49.702;8.618;2022-07-24T01:15:47;6.27;;;4.77;;
3217;SDS011;1621;49.702;8.618;2022-07-24T01:18:13;5.30;;;4.50;;
3217;SDS011;1621;49.702;8.618;2022-07-24T01:20:41;7.50;;;5.13;;
3217;SDS011;1621;49.702;8.618;2022-07-24T01:23:11;6.17;;;5.00;;
3217;SDS011;1621;49.702;8.618;2022-07-24T01:25:38;5.80;;;5.20;;
3217;SDS011;1621;49.702;8.618;2022-07-24T01:28:05;5.70;;;4.87;;
3217;SDS011;1621;49.702;8.618;2022-07-24T01:30:31;6.40;;;4.43;;
3217;SDS011;1621;49.702;8.618;2022-07-24T01:32:57;7.87;;;4.80;;
3217;SDS011;1621;49.702;8.618;2022-07-24T01:35:23;6.93;;;5.67;;
3217;SDS011;1621;49.702;8.618;2022-07-24T01:37:51;6.80;;;4.90;;
3217;SDS011;1621;49.702;8.618;2022-07-24T01:40:17;6.03;;;4.93;;
3217;SDS011;1621;49.702;8.618;2022-07-24T01:42:44;5.63;;;4.93;;
3217;SDS011;1621;49.702;8.618;2022-07-24T01:45:10;5.27;;;4.77;;
3217;SDS011;1621;49.702;8.618;2022-07-24T01:47:36;6.03;;;5.03;;
3217;SDS011;1621;49.702;8.618;2022-07-24T01:50:03;8.03;;;5.67;;
3217;SDS011;1621;49.702;8.618;2022-07-24T01:52:29;5.20;;;4.70;;
3217;SDS011;1621;49.702;8.618;2022-07-24T01:54:57;5.47;;;4.60;;
3217;SDS011;1621;49.702;8.618;2022-07-24T01:57:23;5.67;;;4.80;;
3217;SDS011;1621;49.702;8.618;2022-07-24T01:59:49;6.13;;;4.87;;
3217;SDS011;1621;49.702;8.618;2022-07-24T02:02:16;6.10;;;5.40;;
3217;SDS011;1621;49.702;8.618;2022-07-24T02:04:42;7.03;;;5.50;;
3217;SDS011;1621;49.702;8.618;2022-07-24T02:07:08;6.40;;;5.37;;
3217;SDS011;1621;49.702;8.618;2022-07-24T02:09:34;7.80;;;5.07;;
3217;SDS011;1621;49.702;8.618;2022-07-24T02:12:02;6.30;;;5.03;;
3217;SDS011;1621;49.702;8.618;2022-07-24T02:14:28;5.97;;;4.40;;
3217;SDS011;1621;49.702;8.618;2022-07-24T02:16:55;5.70;;;5.10;;
3217;SDS011;1621;49.702;8.618;2022-07-24T02:19:21;6.20;;;5.20;;
3217;SDS011;1621;49.702;8.618;2022-07-24T02:21:49;6.57;;;5.50;;
3217;SDS011;1621;49.702;8.618;2022-07-24T02:24:16;5.93;;;4.83;;
3217;SDS011;1621;49.702;8.618;2022-07-24T02:26:42;6.07;;;5.07;;
3217;SDS011;1621;49.702;8.618;2022-07-24T02:29:10;6.50;;;5.23;;
3217;SDS011;1621;49.702;8.618;2022-07-24T02:31:36;5.70;;;4.83;;
3217;SDS011;1621;49.702;8.618;2022-07-24T02:34:02;7.00;;;5.40;;
3217;SDS011;1621;49.702;8.618;2022-07-24T02:36:28;6.70;;;5.43;;
3217;SDS011;1621;49.702;8.618;2022-07-24T02:38:55;6.23;;;5.43;;
3217;SDS011;1621;49.702;8.618;2022-07-24T02:41:21;6.30;;;5.03;;
3217;SDS011;1621;49.702;8.618;2022-07-24T02:43:47;6.90;;;5.33;;
3217;SDS011;1621;49.702;8.618;2022-07-24T02:46:15;5.97;;;4.93;;
3217;SDS011;1621;49.702;8.618;2022-07-24T02:48:41;5.90;;;4.67;;
3217;SDS011;1621;49.702;8.618;2022-07-24T02:51:07;6.43;;;5.40;;
3217;SDS011;1621;49.702;8.618;2022-07-24T02:53:35;6.80;;;5.37;;
3217;SDS011;1621;49.702;8.618;2022-07-24T02:56:01;6.07;;;5.47;;
3217;SDS011;1621;49.702;8.618;2022-07-24T02:58:28;6.40;;;4.87;;
3217;SDS011;1621;49.702;8.618;2022-07-24T03:00:54;7.20;;;5.27;;
3217;SDS011;1621;49.702;8.618;2022-07-24T03:03:21;5.73;;;4.83;;
3217;SDS011;1621;49.702;8.618;2022-07-24T03:05:48;6.80;;;5.77;;
3217;SDS011;1621;49.702;8.618;2022-07-24T03:08:14;6.77;;;5.03;;
3217;SDS011;1621;49.702;8.618;2022-07-24T03:10:40;9.53;;;6.30;;
3217;SDS011;1621;49.702;8.618;2022-07-24T03:13:07;7.80;;;5.63;;
3217;SDS011;1621;49.702;8.618;2022-07-24T03:15:33;5.93;;;5.33;;
3217;SDS011;1621;49.702;8.618;2022-07-24T03:17:59;6.63;;;5.30;;
3217;SDS011;1621;49.702;8.618;2022-07-24T03:20:28;5.70;;;5.10;;
3217;SDS011;1621;49.702;8.618;2022-07-24T03:22:54;5.47;;;4.83;;
3217;SDS011;1621;49.702;8.618;2022-07-24T03:25:21;8.07;;;5.70;;
3217;SDS011;1621;49.702;8.618;2022-07-24T03:27:49;8.10;;;5.80;;
3217;SDS011;1621;49.702;8.618;2022-07-24T03:30:16;7.07;;;5.73;;
3217;SDS011;1621;49.702;8.618;2022-07-24T03:32:42;7.20;;;5.57;;
3217;SDS011;1621;49.702;8.618;2022-07-24T03:35:08;5.70;;;4.90;;
3217;SDS011;1621;49.702;8.618;2022-07-24T03:37:36;13.20;;;5.53;;
3217;SDS011;1621;49.702;8.618;2022-07-24T03:40:03;6.60;;;5.20;;
3217;SDS011;1621;49.702;8.618;2022-07-24T03:42:29;7.93;;;5.60;;
3217;SDS011;1621;49.702;8.618;2022-07-24T03:44:55;6.50;;;5.80;;
3217;SDS011;1621;49.702;8.618;2022-07-24T03:47:22;9.73;;;5.10;;
3217;SDS011;1621;49.702;8.618;2022-07-24T03:49:48;6.30;;;5.17;;
3217;SDS011;1621;49.702;8.618;2022-07-24T03:52:14;5.93;;;5.33;;
3217;SDS011;1621;49.702;8.618;2022-07-24T03:54:42;9.50;;;5.87;;
3217;SDS011;1621;49.702;8.618;2022-07-24T03:57:08;6.37;;;5.60;;
3217;SDS011;1621;49.702;8.618;2022-07-24T03:59:34;7.37;;;6.57;;
3217;SDS011;1621;49.702;8.618;2022-07-24T04:02:01;7.23;;;5.77;;
3217;SDS011;1621;49.702;8.618;2022-07-24T04:04:27;7.50;;;5.50;;
3217;SDS011;1621;49.702;8.618;2022-07-24T04:06:53;6.20;;;5.30;;
3217;SDS011;1621;49.702;8.618;2022-07-24T04:09:19;6.30;;;5.70;;
3217;SDS011;1621;49.702;8.618;2022-07-24T04:11:47;8.27;;;6.33;;
3217;SDS011;1621;49.702;8.618;2022-07-24T04:14:13;9.10;;;6.60;;
3217;SDS011;1621;49.702;8.618;2022-07-24T04:16:40;6.33;;;5.67;;
3217;SDS011;1621;49.702;8.618;2022-07-24T04:19:06;7.43;;;5.90;;
3217;SDS011;1621;49.702;8.618;2022-07-24T04:21:32;6.00;;;5.17;;
3217;SDS011;1621;49.702;8.618;2022-07-24T04:23:58;7.00;;;6.00;;
3217;SDS011;1621;49.702;8.618;2022-07-24T04:26:25;6.70;;;5.77;;
3217;SDS011;1621;49.702;8.618;2022-07-24T04:28:52;8.10;;;5.60;;
3217;SDS011;1621;49.702;8.618;2022-07-24T04:31:19;6.93;;;6.23;;
3217;SDS011;1621;49.702;8.618;2022-07-24T04:33:45;7.50;;;6.03;;
3217;SDS011;1621;49.702;8.618;2022-07-24T04:36:11;7.40;;;5.43;;
3217;SDS011;1621;49.702;8.618;2022-07-24T04:38:38;6.97;;;5.27;;
3217;SDS011;1621;49.702;8.618;2022-07-24T04:41:04;7.10;;;5.80;;
3217;SDS011;1621;49.702;8.618;2022-07-24T04:43:30;9.50;;;6.13;;
3217;SDS011;1621;49.702;8.618;2022-07-24T04:45:58;8.60;;;5.80;;
3217;SDS011;1621;49.702;8.618;2022-07-24T04:48:24;7.50;;;6.00;;
3217;SDS011;1621;49.702;8.618;2022-07-24T04:50:51;8.77;;;5.80;;
3217;SDS011;1621;49.702;8.618;2022-07-24T04:53:17;7.17;;;5.40;;
3217;SDS011;1621;49.702;8.618;2022-07-24T04:55:43;7.50;;;5.87;;
3217;SDS011;1621;49.702;8.618;2022-07-24T04:58:10;8.00;;;6.37;;
3217;SDS011;1621;49.702;8.618;2022-07-24T05:00:36;7.60;;;6.30;;
3217;SDS011;1621;49.702;8.618;2022-07-24T05:03:04;8.03;;;6.00;;
3217;SDS011;1621;49.702;8.618;2022-07-24T05:05:30;8.03;;;6.50;;
3217;SDS011;1621;49.702;8.618;2022-07-24T05:07:56;9.07;;;6.40;;
3217;SDS011;1621;49.702;8.618;2022-07-24T05:10:22;9.40;;;6.97;;
3217;SDS011;1621;49.702;8.618;2022-07-24T05:12:48;9.83;;;6.23;;
3217;SDS011;1621;49.702;8.618;2022-07-24T05:15:15;8.80;;;6.13;;
3217;SDS011;1621;49.702;8.618;2022-07-24T05:17:41;7.37;;;6.50;;
3217;SDS011;1621;49.702;8.618;2022-07-24T05:20:09;7.20;;;5.90;;
3217;SDS011;1621;49.702;8.618;2022-07-24T05:22:36;7.83;;;6.23;;
3217;SDS011;1621;49.702;8.618;2022-07-24T05:25:02;7.33;;;6.57;;
3217;SDS011;1621;49.702;8.618;2022-07-24T05:27:29;7.23;;;6.47;;
3217;SDS011;1621;49.702;8.618;2022-07-24T05:29:55;8.77;;;7.63;;
3217;SDS011;1621;49.702;8.618;2022-07-24T05:32:21;7.90;;;6.10;;
3217;SDS011;1621;49.702;8.618;2022-07-24T05:34:47;6.50;;;5.90;;
3217;SDS011;1621;49.702;8.618;2022-07-24T05:37:15;9.33;;;6.93;;
3217;SDS011;1621;49.702;8.618;2022-07-24T05:39:41;8.10;;;6.80;;
3217;SDS011;1621;49.702;8.618;2022-07-24T05:42:07;9.50;;;6.27;;
3217;SDS011;1621;49.702;8.618;2022-07-24T05:44:34;8.30;;;6.30;;
3217;SDS011;1621;49.702;8.618;2022-07-24T05:47:00;12.40;;;6.90;;
3217;SDS011;1621;49.702;8.618;2022-07-24T05:49:26;10.03;;;7.13;;
3217;SDS011;1621;49.702;8.618;2022-07-24T05:51:53;8.57;;;7.40;;
3217;SDS011;1621;49.702;8.618;2022-07-24T05:54:20;8.80;;;6.50;;
3217;SDS011;1621;49.702;8.618;2022-07-24T05:56:47;8.90;;;6.70;;
3217;SDS011;1621;49.702;8.618;2022-07-24T05:59:13;14.80;;;6.80;;
3217;SDS011;1621;49.702;8.618;2022-07-24T06:01:39;7.70;;;6.50;;
3217;SDS011;1621;49.702;8.618;2022-07-24T06:04:05;9.03;;;6.90;;
3217;SDS011;1621;49.702;8.618;2022-07-24T06:06:32;11.07;;;6.73;;
3217;SDS011;1621;49.702;8.618;2022-07-24T06:08:58;8.70;;;6.80;;
3217;SDS011;1621;49.702;8.618;2022-07-24T06:11:26;8.07;;;6.90;;
3217;SDS011;1621;49.702;8.618;2022-07-24T06:13:52;8.20;;;6.40;;
3217;SDS011;1621;49.702;8.618;2022-07-24T06:16:18;7.00;;;6.30;;
3217;SDS011;1621;49.702;8.618;2022-07-24T06:18:44;8.20;;;6.30;;
3217;SDS011;1621;49.702;8.618;2022-07-24T06:21:11;8.30;;;5.90;;
3217;SDS011;1621;49.702;8.618;2022-07-24T06:23:37;7.50;;;6.70;;
3217;SDS011;1621;49.702;8.618;2022-07-24T06:26:03;6.77;;;6.07;;
3217;SDS011;1621;49.702;8.618;2022-07-24T06:28:31;7.40;;;5.90;;
3217;SDS011;1621;49.702;8.618;2022-07-24T06:30:57;11.63;;;6.17;;
3217;SDS011;1621;49.702;8.618;2022-07-24T06:33:23;7.90;;;7.00;;
3217;SDS011;1621;49.702;8.618;2022-07-24T06:35:50;6.90;;;6.17;;
3217;SDS011;1621;49.702;8.618;2022-07-24T06:38:16;9.90;;;6.07;;
3217;SDS011;1621;49.702;8.618;2022-07-24T06:40:42;6.97;;;6.20;;
3217;SDS011;1621;49.702;8.618;2022-07-24T06:43:09;7.50;;;5.90;;
3217;SDS011;1621;49.702;8.618;2022-07-24T06:45:36;7.67;;;6.03;;
3217;SDS011;1621;49.702;8.618;2022-07-24T06:48:03;13.20;;;6.00;;
3217;SDS011;1621;49.702;8.618;2022-07-24T06:50:29;8.13;;;7.13;;
3217;SDS011;1621;49.702;8.618;2022-07-24T06:52:56;8.70;;;6.90;;
3217;SDS011;1621;49.702;8.618;2022-07-24T06:55:22;7.50;;;6.60;;
3217;SDS011;1621;49.702;8.618;2022-07-24T06:57:48;7.60;;;6.90;;
3217;SDS011;1621;49.702;8.618;2022-07-24T07:00:14;9.80;;;7.77;;
3217;SDS011;1621;49.702;8.618;2022-07-24T07:02:42;8.90;;;6.80;;
3217;SDS011;1621;49.702;8.618;2022-07-24T07:05:08;9.73;;;6.87;;
3217;SDS011;1621;49.702;8.618;2022-07-24T07:07:35;8.97;;;6.97;;
3217;SDS011;1621;49.702;8.618;2022-07-24T07:10:02;8.70;;;7.40;;
3217;SDS011;1621;49.702;8.618;2022-07-24T07:12:28;13.93;;;7.60;;
3217;SDS011;1621;49.702;8.618;2022-07-24T07:14:54;7.83;;;6.30;;
3217;SDS011;1621;49.702;8.618;2022-07-24T07:17:23;7.60;;;6.70;;
3217;SDS011;1621;49.702;8.618;2022-07-24T07:19:50;9.00;;;6.87;;
3217;SDS011;1621;49.702;8.618;2022-07-24T07:22:16;7.93;;;6.83;;
3217;SDS011;1621;49.702;8.618;2022-07-24T07:24:43;7.40;;;6.07;;
3217;SDS011;1621;49.702;8.618;2022-07-24T07:27:09;8.80;;;7.10;;
3217;SDS011;1621;49.702;8.618;2022-07-24T07:29:35;10.10;;;7.40;;
3217;SDS011;1621;49.702;8.618;2022-07-24T07:32:01;9.10;;;7.70;;
3217;SDS011;1621;49.702;8.618;2022-07-24T07:34:28;7.50;;;6.80;;
3217;SDS011;1621;49.702;8.618;2022-07-24T07:36:55;8.63;;;7.13;;
3217;SDS011;1621;49.702;8.618;2022-07-24T07:39:21;7.50;;;6.70;;
3217;SDS011;1621;49.702;8.618;2022-07-24T07:41:48;7.57;;;6.63;;
3217;SDS011;1621;49.702;8.618;2022-07-24T07:44:14;9.07;;;6.93;;
3217;SDS011;1621;49.702;8.618;2022-07-24T07:46:40;11.27;;;7.23;;
3217;SDS011;1621;49.702;8.618;2022-07-24T07:49:06;9.53;;;7.10;;
3217;SDS011;1621;49.702;8.618;2022-07-24T07:51:33;9.13;;;7.50;;
3217;SDS011;1621;49.702;8.618;2022-07-24T07:54:00;8.10;;;6.80;;
3217;SDS011;1621;49.702;8.618;2022-07-24T07:56:27;6.80;;;6.10;;
3217;SDS011;1621;49.702;8.618;2022-07-24T07:58:55;7.30;;;6.37;;
3217;SDS011;1621;49.702;8.618;2022-07-24T08:01:21;7.03;;;6.33;;
3217;SDS011;1621;49.702;8.618;2022-07-24T08:03:48;8.73;;;6.77;;
3217;SDS011;1621;49.702;8.618;2022-07-24T08:06:14;9.63;;;7.10;;
3217;SDS011;1621;49.702;8.618;2022-07-24T08:08:40;8.30;;;6.70;;
3217;SDS011;1621;49.702;8.618;2022-07-24T08:11:08;7.70;;;6.70;;
3217;SDS011;1621;49.702;8.618;2022-07-24T08:13:34;6.97;;;6.20;;
3217;SDS011;1621;49.702;8.618;2022-07-24T08:16:00;7.40;;;6.53;;
3217;SDS011;1621;49.702;8.618;2022-07-24T08:18:26;8.70;;;6.40;;
3217;SDS011;1621;49.702;8.618;2022-07-24T08:20:53;8.40;;;6.20;;
3217;SDS011;1621;49.702;8.618;2022-07-24T08:23:19;7.30;;;6.60;;
3217;SDS011;1621;49.702;8.618;2022-07-24T08:25:45;8.03;;;6.30;;
3217;SDS011;1621;49.702;8.618;2022-07-24T08:28:13;8.17;;;6.60;;
3217;SDS011;1621;49.702;8.618;2022-07-24T08:30:39;7.03;;;6.33;;
3217;SDS011;1621;49.702;8.618;2022-07-24T08:33:05;7.57;;;6.47;;
3217;SDS011;1621;49.702;8.618;2022-07-24T08:35:31;6.87;;;6.20;;
3217;SDS011;1621;49.702;8.618;2022-07-24T08:37:58;8.27;;;6.17;;
3217;SDS011;1621;49.702;8.618;2022-07-24T08:40:24;6.57;;;5.80;;
3217;SDS011;1621;49.702;8.618;2022-07-24T08:42:50;11.63;;;6.47;;
3217;SDS011;1621;49.702;8.618;2022-07-24T08:45:18;6.67;;;5.97;;
3217;SDS011;1621;49.702;8.618;2022-07-24T08:47:44;9.27;;;5.97;;
3217;SDS011;1621;49.702;8.618;2022-07-24T08:50:10;7.53;;;5.73;;
3217;SDS011;1621;49.702;8.618;2022-07-24T08:52:37;8.90;;;6.43;;
3217;SDS011;1621;49.702;8.618;2022-07-24T08:55:04;8.10;;;6.10;;
3217;SDS011;1621;49.702;8.618;2022-07-24T08:57:30;8.80;;;6.20;;
3217;SDS011;1621;49.702;8.618;2022-07-24T08:59:56;7.93;;;6.87;;
3217;SDS011;1621;49.702;8.618;2022-07-24T09:02:24;8.47;;;6.80;;
3217;SDS011;1621;49.702;8.618;2022-07-24T09:04:57;6.10;;;5.50;;
3217;SDS011;1621;49.702;8.618;2022-07-24T09:07:23;9.33;;;6.60;;
3217;SDS011;1621;49.702;8.618;2022-07-24T09:09:57;6.40;;;5.70;;
3217;SDS011;1621;49.702;8.618;2022-07-24T09:12:24;7.27;;;6.57;;
3217;SDS011;1621;49.702;8.618;2022-07-24T09:14:50;7.43;;;6.40;;
3217;SDS011;1621;49.702;8.618;2022-07-24T09:17:17;8.30;;;6.70;;
3217;SDS011;1621;49.702;8.618;2022-07-24T09:19:50;6.70;;;5.73;;
3217;SDS011;1621;49.702;8.618;2022-07-24T09:22:17;6.10;;;5.27;;
3217;SDS011;1621;49.702;8.618;2022-07-24T09:24:48;9.00;;;6.33;;
3217;SDS011;1621;49.702;8.618;2022-07-24T09:27:28;8.70;;;6.20;;
3217;SDS011;1621;49.702;8.618;2022-07-24T09:29:55;6.80;;;5.67;;
3217;SDS011;1621;49.702;8.618;2022-07-24T09:32:22;5.60;;;4.60;;
3217;SDS011;1621;49.702;8.618;2022-07-24T09:34:51;7.80;;;5.67;;
3217;SDS011;1621;49.702;8.618;2022-07-24T09:37:17;11.50;;;5.60;;
3217;SDS011;1621;49.702;8.618;2022-07-24T09:39:44;11.10;;;5.70;;
3217;SDS011;1621;49.702;8.618;2022-07-24T09:42:11;7.00;;;5.80;;
3217;SDS011;1621;49.702;8.618;2022-07-24T09:44:37;7.53;;;6.17;;
3217;SDS011;1621;49.702;8.618;2022-07-24T09:47:05;8.50;;;5.73;;
3217;SDS011;1621;49.702;8.618;2022-07-24T09:49:31;6.53;;;5.83;;
3217;SDS011;1621;49.702;8.618;2022-07-24T09:52:13;7.73;;;5.73;;
3217;SDS011;1621;49.702;8.618;2022-07-24T09:54:40;7.10;;;5.60;;
3217;SDS011;1621;49.702;8.618;2022-07-24T09:57:20;8.27;;;6.23;;
3217;SDS011;1621;49.702;8.618;2022-07-24T09:59:47;10.50;;;6.70;;
3217;SDS011;1621;49.702;8.618;2022-07-24T10:02:17;6.80;;;6.10;;
3217;SDS011;1621;49.702;8.618;2022-07-24T10:04:44;10.70;;;7.03;;
3217;SDS011;1621;49.702;8.618;2022-07-24T10:07:13;9.37;;;6.80;;
3217;SDS011;1621;49.702;8.618;2022-07-24T10:09:40;7.93;;;6.90;;
3217;SDS011;1621;49.702;8.618;2022-07-24T10:12:09;10.17;;;7.47;;
3217;SDS011;1621;49.702;8.618;2022-07-24T10:14:37;8.57;;;6.83;;
3217;SDS011;1621;49.702;8.618;2022-07-24T10:17:05;7.10;;;6.40;;
3217;SDS011;1621;49.702;8.618;2022-07-24T10:19:39;8.40;;;6.47;;
3217;SDS011;1621;49.702;8.618;2022-07-24T10:22:08;9.13;;;6.83;;
3217;SDS011;1621;49.702;8.618;2022-07-24T10:24:51;8.57;;;7.00;;
3217;SDS011;1621;49.702;8.618;2022-07-24T10:27:26;7.27;;;6.57;;
3217;SDS011;1621;49.702;8.618;2022-07-24T10:29:53;8.40;;;7.07;;
3217;SDS011;1621;49.702;8.618;2022-07-24T10:32:19;8.33;;;7.47;;
3217;SDS011;1621;49.702;8.618;2022-07-24T10:34:46;7.60;;;6.77;;
3217;SDS011;1621;49.702;8.618;2022-07-24T10:37:21;8.17;;;6.97;;
3217;SDS011;1621;49.702;8.618;2022-07-24T10:39:53;7.90;;;7.10;;
3217;SDS011;1621;49.702;8.618;2022-07-24T10:42:20;9.40;;;7.93;;
3217;SDS011;1621;49.702;8.618;2022-07-24T10:47:28;8.70;;;7.10;;
3217;SDS011;1621;49.702;8.618;2022-07-24T10:49:54;8.67;;;6.43;;
3217;SDS011;1621;49.702;8.618;2022-07-24T10:52:23;7.83;;;7.03;;
3217;SDS011;1621;49.702;8.618;2022-07-24T10:57:48;7.57;;;6.30;;
3217;SDS011;1621;49.702;8.618;2022-07-24T11:00:22;8.37;;;7.57;;
3217;SDS011;1621;49.702;8.618;2022-07-24T11:02:54;8.10;;;7.30;;
3217;SDS011;1621;49.702;8.618;2022-07-24T11:05:25;9.33;;;7.27;;
3217;SDS011;1621;49.702;8.618;2022-07-24T11:10:45;8.13;;;7.33;;
3217;SDS011;1621;49.702;8.618;2022-07-24T11:16:13;10.90;;;7.13;;
3217;SDS011;1621;49.702;8.618;2022-07-24T11:18:42;7.50;;;6.73;;
3217;SDS011;1621;49.702;8.618;2022-07-24T11:21:28;10.63;;;7.67;;
3217;SDS011;1621;49.702;8.618;2022-07-24T11:26:40;9.33;;;7.70;;
3217;SDS011;1621;49.702;8.618;2022-07-24T11:29:09;8.73;;;6.97;;
3217;SDS011;1621;49.702;8.618;2022-07-24T11:31:37;6.80;;;6.10;;
3217;SDS011;1621;49.702;8.618;2022-07-24T11:34:04;6.20;;;5.60;;
3217;SDS011;1621;49.702;8.618;2022-07-24T11:36:31;6.83;;;5.80;;
3217;SDS011;1621;49.702;8.618;2022-07-24T11:38:57;7.50;;;6.63;;
3217;SDS011;1621;49.702;8.618;2022-07-24T11:41:24;7.60;;;6.43;;
3217;SDS011;1621;49.702;8.618;2022-07-24T11:43:50;6.50;;;5.30;;
3217;SDS011;1621;49.702;8.618;2022-07-24T11:46:31;5.93;;;5.33;;
3217;SDS011;1621;49.702;8.618;2022-07-24T11:49:02;6.37;;;5.13;;
3217;SDS011;1621;49.702;8.618;2022-07-24T11:51:28;6.80;;;5.50;;
3217;SDS011;1621;49.702;8.618;2022-07-24T11:53:55;7.40;;;6.47;;
3217;SDS011;1621;49.702;8.618;2022-07-24T11:56:22;6.17;;;5.57;;
3217;SDS011;1621;49.702;8.618;2022-07-24T11:58:48;5.53;;;5.00;;
3217;SDS011;1621;49.702;8.618;2022-07-24T12:01:20;7.83;;;5.33;;
3217;SDS011;1621;49.702;8.618;2022-07-24T12:03:50;5.87;;;5.27;;
3217;SDS011;1621;49.702;8.618;2022-07-24T12:06:18;6.47;;;5.87;;
3217;SDS011;1621;49.702;8.618;2022-07-24T12:08:45;7.17;;;6.47;;
3217;SDS011;1621;49.702;8.618;2022-07-24T12:11:11;8.83;;;6.60;;
3217;SDS011;1621;49.702;8.618;2022-07-24T12:13:45;7.90;;;6.70;;
3217;SDS011;1621;49.702;8.618;2022-07-24T12:16:11;8.00;;;6.77;;
3217;SDS011;1621;49.702;8.618;2022-07-24T12:18:37;7.67;;;6.20;;
3217;SDS011;1621;49.702;8.618;2022-07-24T12:21:04;6.97;;;5.97;;
3217;SDS011;1621;49.702;8.618;2022-07-24T12:23:31;7.40;;;6.60;;
3217;SDS011;1621;49.702;8.618;2022-07-24T12:25:59;6.63;;;5.87;;
3217;SDS011;1621;49.702;8.618;2022-07-24T12:28:25;6.87;;;6.10;;
3217;SDS011;1621;49.702;8.618;2022-07-24T12:30:52;8.30;;;7.40;;
3217;SDS011;1621;49.702;8.618;2022-07-24T12:33:19;10.70;;;6.90;;
3217;SDS011;1621;49.702;8.618;2022-07-24T12:35:53;8.27;;;6.73;;
3217;SDS011;1621;49.702;8.618;2022-07-24T12:38:23;6.80;;;6.20;;
3217;SDS011;1621;49.702;8.618;2022-07-24T12:40:50;9.73;;;6.77;;
3217;SDS011;1621;49.702;8.618;2022-07-24T12:43:17;8.93;;;6.20;;
3217;SDS011;1621;49.702;8.618;2022-07-24T12:45:43;7.33;;;6.60;;
3217;SDS011;1621;49.702;8.618;2022-07-24T12:48:10;9.60;;;7.60;;
3217;SDS011;1621;49.702;8.618;2022-07-24T12:50:50;8.00;;;7.20;;
3217;SDS011;1621;49.702;8.618;2022-07-24T12:53:23;7.20;;;6.50;;
3217;SDS011;1621;49.702;8.618;2022-07-24T12:56:01;7.73;;;6.37;;
3217;SDS011;1621;49.702;8.618;2022-07-24T12:58:27;9.37;;;6.50;;
3217;SDS011;1621;49.702;8.618;2022-07-24T13:00:55;8.90;;;6.40;;
3217;SDS011;1621;49.702;8.618;2022-07-24T13:03:23;7.80;;;7.00;;
3217;SDS011;1621;49.702;8.618;2022-07-24T13:05:53;7.17;;;6.47;;
3217;SDS011;1621;49.702;8.618;2022-07-24T13:08:20;6.27;;;5.67;;
3217;SDS011;1621;49.702;8.618;2022-07-24T13:10:46;6.83;;;6.10;;
3217;SDS011;1621;49.702;8.618;2022-07-24T13:13:14;6.97;;;6.33;;
3217;SDS011;1621;49.702;8.618;2022-07-24T13:15:40;8.50;;;6.20;;
3217;SDS011;1621;49.702;8.618;2022-07-24T13:18:06;7.03;;;6.30;;
3217;SDS011;1621;49.702;8.618;2022-07-24T13:20:32;8.10;;;6.83;;
3217;SDS011;1621;49.702;8.618;2022-07-24T13:22:58;7.30;;;6.50;;
3217;SDS011;1621;49.702;8.618;2022-07-24T13:25:25;6.93;;;6.23;;
3217;SDS011;1621;49.702;8.618;2022-07-24T13:27:51;7.70;;;6.63;;
3217;SDS011;1621;49.702;8.618;2022-07-24T13:30:19;7.53;;;6.73;;
3217;SDS011;1621;49.702;8.618;2022-07-24T13:32:45;7.10;;;6.40;;
3217;SDS011;1621;49.702;8.618;2022-07-24T13:35:11;9.07;;;6.60;;
3217;SDS011;1621;49.702;8.618;2022-07-24T13:37:38;8.93;;;6.57;;
3217;SDS011;1621;49.702;8.618;2022-07-24T13:40:05;6.87;;;6.20;;
3217;SDS011;1621;49.702;8.618;2022-07-24T13:42:32;7.47;;;5.60;;
3217;SDS011;1621;49.702;8.618;2022-07-24T13:44:58;6.27;;;5.60;;
3217;SDS011;1621;49.702;8.618;2022-07-24T13:47:25;6.40;;;5.30;;
3217;SDS011;1621;49.702;8.618;2022-07-24T13:49:52;6.30;;;5.53;;
3217;SDS011;1621;49.702;8.618;2022-07-24T13:52:18;6.30;;;5.20;;
3217;SDS011;1621;49.702;8.618;2022-07-24T13:54:44;6.53;;;5.67;;
3217;SDS011;1621;49.702;8.618;2022-07-24T13:57:11;7.43;;;5.73;;
3217;SDS011;1621;49.702;8.618;2022-07-24T13:59:38;6.97;;;5.60;;
3217;SDS011;1621;49.702;8.618;2022-07-24T14:02:04;5.97;;;5.37;;
3217;SDS011;1621;49.702;8.618;2022-07-24T14:04:32;8.43;;;5.63;;
3217;SDS011;1621;49.702;8.618;2022-07-24T14:06:59;6.67;;;5.97;;
3217;SDS011;1621;49.702;8.618;2022-07-24T14:09:25;6.07;;;5.10;;
3217;SDS011;1621;49.702;8.618;2022-07-24T14:11:53;7.10;;;5.47;;
3217;SDS011;1621;49.702;8.618;2022-07-24T14:14:19;6.30;;;5.37;;
3217;SDS011;1621;49.702;8.618;2022-07-24T14:16:46;6.20;;;4.87;;
3217;SDS011;1621;49.702;8.618;2022-07-24T14:19:12;5.53;;;5.03;;
3217;SDS011;1621;49.702;8.618;2022-07-24T14:21:39;5.87;;;5.30;;
3217;SDS011;1621;49.702;8.618;2022-07-24T14:24:10;6.53;;;5.23;;
3217;SDS011;1621;49.702;8.618;2022-07-24T14:26:37;7.17;;;5.80;;
3217;SDS011;1621;49.702;8.618;2022-07-24T14:29:03;8.23;;;5.37;;
3217;SDS011;1621;49.702;8.618;2022-07-24T14:31:29;6.17;;;5.57;;
3217;SDS011;1621;49.702;8.618;2022-07-24T14:33:56;5.80;;;5.20;;
3217;SDS011;1621;49.702;8.618;2022-07-24T14:36:22;8.63;;;4.60;;
3217;SDS011;1621;49.702;8.618;2022-07-24T14:38:49;5.70;;;4.67;;
3217;SDS011;1621;49.702;8.618;2022-07-24T14:41:16;5.77;;;5.17;;
3217;SDS011;1621;49.702;8.618;2022-07-24T14:43:42;4.90;;;4.50;;
3217;SDS011;1621;49.702;8.618;2022-07-24T14:46:08;6.67;;;5.07;;
3217;SDS011;1621;49.702;8.618;2022-07-24T14:48:34;5.77;;;5.17;;
3217;SDS011;1621;49.702;8.618;2022-07-24T14:51:01;5.37;;;4.87;;
3217;SDS011;1621;49.702;8.618;2022-07-24T14:53:27;5.60;;;5.10;;
3217;SDS011;1621;49.702;8.618;2022-07-24T14:55:55;5.27;;;4.47;;
3217;SDS011;1621;49.702;8.618;2022-07-24T14:58:21;6.43;;;4.50;;
3217;SDS011;1621;49.702;8.618;2022-07-24T15:00:47;4.70;;;3.93;;
3217;SDS011;1621;49.702;8.618;2022-07-24T15:03:13;4.87;;;4.37;;
3217;SDS011;1621;49.702;8.618;2022-07-24T15:05:40;4.87;;;4.37;;
3217;SDS011;1621;49.702;8.618;2022-07-24T15:08:06;5.77;;;3.83;;
3217;SDS011;1621;49.702;8.618;2022-07-24T15:10:32;4.30;;;3.90;;
3217;SDS011;1621;49.702;8.618;2022-07-24T15:13:00;4.50;;;4.10;;
3217;SDS011;1621;49.702;8.618;2022-07-24T15:15:27;6.73;;;3.90;;
3217;SDS011;1621;49.702;8.618;2022-07-24T15:17:53;4.27;;;3.87;;
3217;SDS011;1621;49.702;8.618;2022-07-24T15:20:19;7.27;;;4.30;;
3217;SDS011;1621;49.702;8.618;2022-07-24T15:22:45;8.20;;;4.20;;
3217;SDS011;1621;49.702;8.618;2022-07-24T15:25:12;4.40;;;4.00;;
3217;SDS011;1621;49.702;8.618;2022-07-24T15:27:38;5.27;;;4.40;;